sensor_id;sensor_type;location;lat;lon;timestamp;pressure;altitude;pressure_sealevel;temperature;humidity
1726;BME280;41776;48.260;8.928;2022-07-29T00:01:19;70859.19;;;-145.69;100.00
1726;BME280;41776;48.260;8.928;2022-07-29T00:03:45;70865.16;;;-145.69;100.00
1726;BME280;41776;48.260;8.928;2022-07-29T00:06:12;70867.16;;;-145.69;100.00
1726;BME280;41776;48.260;8.928;2022-07-29T00:08:39;70873.13;;;-145.69;100.00
1726;BME280;41776;48.260;8.928;2022-07-29T00:11:06;70859.19;;;-145.69;100.00
1726;BME280;41776;48.260;8.928;2022-07-29T00:13:32;70861.19;;;-145.69;100.00
1726;BME280;41776;48.260;8.928;2022-07-29T00:16:00;70875.13;;;-145.69;100.00
1726;BME280;41776;48.260;8.928;2022-07-29T00:18:27;70861.19;;;-145.69;100.00
1726;BME280;41776;48.260;8.928;2022-07-29T00:20:53;70853.22;;;-145.69;100.00
1726;BME280;41776;48.260;8.928;2022-07-29T00:23:20;70853.22;;;-145.69;100.00
1726;BME280;41776;48.260;8.928;2022-07-29T00:25:47;70855.22;;;-145.69;100.00
1726;BME280;41776;48.260;8.928;2022-07-29T00:28:13;70853.22;;;-145.69;100.00
1726;BME280;41776;48.260;8.928;2022-07-29T00:30:40;70843.28;;;-145.69;100.00
1726;BME280;41776;48.260;8.928;2022-07-29T00:33:09;70841.28;;;-145.69;100.00
1726;BME280;41776;48.260;8.928;2022-07-29T00:35:35;70855.22;;;-145.69;100.00
1726;BME280;41776;48.260;8.928;2022-07-29T00:38:12;70853.22;;;-145.69;100.00
1726;BME280;41776;48.260;8.928;2022-07-29T00:40:39;70853.22;;;-145.69;100.00
1726;BME280;41776;48.260;8.928;2022-07-29T00:43:05;70849.25;;;-145.69;100.00
1726;BME280;41776;48.260;8.928;2022-07-29T00:45:32;70869.16;;;-145.69;100.00
1726;BME280;41776;48.260;8.928;2022-07-29T00:47:58;70843.28;;;-145.69;100.00
1726;BME280;41776;48.260;8.928;2022-07-29T00:50:26;70873.13;;;-145.69;100.00
1726;BME280;41776;48.260;8.928;2022-07-29T00:52:53;70873.13;;;-145.69;100.00
1726;BME280;41776;48.260;8.928;2022-07-29T00:55:20;70879.09;;;-145.69;100.00
1726;BME280;41776;48.260;8.928;2022-07-29T00:57:47;70889.03;;;-145.69;100.00
1726;BME280;41776;48.260;8.928;2022-07-29T01:00:16;70928.84;;;-145.69;100.00
1726;BME280;41776;48.260;8.928;2022-07-29T01:02:43;70950.72;;;-145.69;100.00
1726;BME280;41776;48.260;8.928;2022-07-29T01:05:10;70964.66;;;-145.69;100.00
1726;BME280;41776;48.260;8.928;2022-07-29T01:07:39;70944.75;;;-145.69;100.00
1726;BME280;41776;48.260;8.928;2022-07-29T01:10:07;70964.66;;;-145.69;100.00
1726;BME280;41776;48.260;8.928;2022-07-29T01:12:36;70972.59;;;-145.69;100.00
1726;BME280;41776;48.260;8.928;2022-07-29T01:15:05;70976.59;;;-145.69;100.00
1726;BME280;41776;48.260;8.928;2022-07-29T01:17:36;70976.59;;;-145.69;100.00
1726;BME280;41776;48.260;8.928;2022-07-29T01:20:08;70984.53;;;-145.69;100.00
1726;BME280;41776;48.260;8.928;2022-07-29T01:22:47;70996.47;;;-145.69;100.00
1726;BME280;41776;48.260;8.928;2022-07-29T01:25:45;70998.47;;;-145.69;100.00
1726;BME280;41776;48.260;8.928;2022-07-29T01:28:36;70992.50;;;-145.69;100.00
1726;BME280;41776;48.260;8.928;2022-07-29T01:31:05;70974.59;;;-145.69;100.00
1726;BME280;41776;48.260;8.928;2022-07-29T01:33:38;70958.69;;;-145.69;100.00
1726;BME280;41776;48.260;8.928;2022-07-29T01:36:23;70948.72;;;-145.69;100.00
1726;BME280;41776;48.260;8.928;2022-07-29T01:38:56;70932.81;;;-145.69;100.00
1726;BME280;41776;48.260;8.928;2022-07-29T01:41:26;70940.78;;;-145.69;100.00
1726;BME280;41776;48.260;8.928;2022-07-29T01:44:02;70942.75;;;-145.69;100.00
1726;BME280;41776;48.260;8.928;2022-07-29T01:46:32;70950.72;;;-145.69;100.00
1726;BME280;41776;48.260;8.928;2022-07-29T01:49:02;70964.66;;;-145.69;100.00
1726;BME280;41776;48.260;8.928;2022-07-29T01:51:35;70974.59;;;-145.69;100.00
1726;BME280;41776;48.260;8.928;2022-07-29T01:54:08;70980.56;;;-145.69;100.00
1726;BME280;41776;48.260;8.928;2022-07-29T01:56:37;70988.53;;;-145.69;100.00
1726;BME280;41776;48.260;8.928;2022-07-29T01:59:07;70982.56;;;-145.69;100.00
1726;BME280;41776;48.260;8.928;2022-07-29T02:01:35;70996.47;;;-145.69;100.00
1726;BME280;41776;48.260;8.928;2022-07-29T02:04:03;70996.47;;;-145.69;100.00
1726;BME280;41776;48.260;8.928;2022-07-29T02:06:32;70992.50;;;-145.69;100.00
1726;BME280;41776;48.260;8.928;2022-07-29T02:09:01;70988.53;;;-145.69;100.00
1726;BME280;41776;48.260;8.928;2022-07-29T02:11:29;70988.53;;;-145.69;100.00
1726;BME280;41776;48.260;8.928;2022-07-29T02:13:57;70982.56;;;-145.69;100.00
1726;BME280;41776;48.260;8.928;2022-07-29T02:16:28;70976.59;;;-145.69;100.00
1726;BME280;41776;48.260;8.928;2022-07-29T02:18:57;70984.53;;;-145.69;100.00
1726;BME280;41776;48.260;8.928;2022-07-29T02:21:25;70992.50;;;-145.69;100.00
1726;BME280;41776;48.260;8.928;2022-07-29T02:23:54;70994.50;;;-145.69;100.00
1726;BME280;41776;48.260;8.928;2022-07-29T02:26:24;70994.50;;;-145.69;100.00
1726;BME280;41776;48.260;8.928;2022-07-29T02:28:54;70984.53;;;-145.69;100.00
1726;BME280;41776;48.260;8.928;2022-07-29T02:31:23;70992.50;;;-145.69;100.00
1726;BME280;41776;48.260;8.928;2022-07-29T02:33:52;70996.47;;;-145.69;100.00
1726;BME280;41776;48.260;8.928;2022-07-29T02:36:21;71008.41;;;-145.69;100.00
1726;BME280;41776;48.260;8.928;2022-07-29T02:38:49;71012.41;;;-145.69;100.00
1726;BME280;41776;48.260;8.928;2022-07-29T02:41:18;71020.34;;;-145.69;100.00
1726;BME280;41776;48.260;8.928;2022-07-29T02:43:47;71010.41;;;-145.69;100.00
1726;BME280;41776;48.260;8.928;2022-07-29T02:46:18;71002.44;;;-145.69;100.00
1726;BME280;41776;48.260;8.928;2022-07-29T02:48:51;71016.38;;;-145.69;100.00
1726;BME280;41776;48.260;8.928;2022-07-29T02:51:25;71024.34;;;-145.69;100.00
1726;BME280;41776;48.260;8.928;2022-07-29T02:53:56;71020.34;;;-145.69;100.00
1726;BME280;41776;48.260;8.928;2022-07-29T02:56:31;71034.28;;;-145.69;100.00
1726;BME280;41776;48.260;8.928;2022-07-29T02:59:04;71020.34;;;-145.69;100.00
1726;BME280;41776;48.260;8.928;2022-07-29T03:01:32;71032.28;;;-145.69;100.00
1726;BME280;41776;48.260;8.928;2022-07-29T03:04:03;71040.25;;;-145.69;100.00
1726;BME280;41776;48.260;8.928;2022-07-29T03:06:32;71056.16;;;-145.69;100.00
1726;BME280;41776;48.260;8.928;2022-07-29T03:09:01;71064.13;;;-145.69;100.00
1726;BME280;41776;48.260;8.928;2022-07-29T03:11:28;71080.06;;;-145.69;100.00
1726;BME280;41776;48.260;8.928;2022-07-29T03:13:56;71084.03;;;-145.69;100.00
1726;BME280;41776;48.260;8.928;2022-07-29T03:16:22;71078.06;;;-145.69;100.00
1726;BME280;41776;48.260;8.928;2022-07-29T03:18:49;71080.06;;;-145.69;100.00
1726;BME280;41776;48.260;8.928;2022-07-29T03:21:16;71084.03;;;-145.69;100.00
1726;BME280;41776;48.260;8.928;2022-07-29T03:23:45;71080.06;;;-145.69;100.00
1726;BME280;41776;48.260;8.928;2022-07-29T03:26:11;71090.00;;;-145.69;100.00
1726;BME280;41776;48.260;8.928;2022-07-29T03:28:38;71095.97;;;-145.69;100.00
1726;BME280;41776;48.260;8.928;2022-07-29T03:31:04;71095.97;;;-145.69;100.00
1726;BME280;41776;48.260;8.928;2022-07-29T03:33:31;71105.91;;;-145.69;100.00
1726;BME280;41776;48.260;8.928;2022-07-29T03:35:57;71105.91;;;-145.69;100.00
1726;BME280;41776;48.260;8.928;2022-07-29T03:38:29;71121.84;;;-145.69;100.00
1726;BME280;41776;48.260;8.928;2022-07-29T03:41:04;71133.78;;;-145.69;100.00
1726;BME280;41776;48.260;8.928;2022-07-29T03:43:35;71107.91;;;-145.69;100.00
1726;BME280;41776;48.260;8.928;2022-07-29T03:46:06;71111.88;;;-145.69;100.00
1726;BME280;41776;48.260;8.928;2022-07-29T03:48:39;71119.84;;;-145.69;100.00
1726;BME280;41776;48.260;8.928;2022-07-29T03:51:16;71129.78;;;-145.69;100.00
1726;BME280;41776;48.260;8.928;2022-07-29T03:53:46;71139.75;;;-145.69;100.00
1726;BME280;41776;48.260;8.928;2022-07-29T03:56:17;71143.72;;;-145.69;100.00
1726;BME280;41776;48.260;8.928;2022-07-29T03:58:47;71143.72;;;-145.69;100.00
1726;BME280;41776;48.260;8.928;2022-07-29T04:01:15;71131.78;;;-145.69;100.00
1726;BME280;41776;48.260;8.928;2022-07-29T04:03:42;71123.81;;;-145.69;100.00
1726;BME280;41776;48.260;8.928;2022-07-29T04:06:12;71131.78;;;-145.69;100.00
1726;BME280;41776;48.260;8.928;2022-07-29T04:08:38;71135.75;;;-145.69;100.00
1726;BME280;41776;48.260;8.928;2022-07-29T04:11:05;71127.81;;;-145.69;100.00
1726;BME280;41776;48.260;8.928;2022-07-29T04:13:34;71129.78;;;-145.69;100.00
1726;BME280;41776;48.260;8.928;2022-07-29T04:16:01;71133.78;;;-145.69;100.00
1726;BME280;41776;48.260;8.928;2022-07-29T04:18:27;71135.75;;;-145.69;100.00
1726;BME280;41776;48.260;8.928;2022-07-29T04:20:54;71141.72;;;-145.69;100.00
1726;BME280;41776;48.260;8.928;2022-07-29T04:23:20;71139.75;;;-145.69;100.00
1726;BME280;41776;48.260;8.928;2022-07-29T04:25:47;71129.78;;;-145.69;100.00
1726;BME280;41776;48.260;8.928;2022-07-29T04:28:13;71123.81;;;-145.69;100.00
1726;BME280;41776;48.260;8.928;2022-07-29T04:30:41;71125.81;;;-145.69;100.00
1726;BME280;41776;48.260;8.928;2022-07-29T04:33:08;71123.81;;;-145.69;100.00
1726;BME280;41776;48.260;8.928;2022-07-29T04:35:38;71117.84;;;-145.69;100.00
1726;BME280;41776;48.260;8.928;2022-07-29T04:38:06;71127.81;;;-145.69;100.00
1726;BME280;41776;48.260;8.928;2022-07-29T04:40:35;71127.81;;;-145.69;100.00
1726;BME280;41776;48.260;8.928;2022-07-29T04:43:02;71123.81;;;-145.69;100.00
1726;BME280;41776;48.260;8.928;2022-07-29T04:45:29;71119.84;;;-145.69;100.00
1726;BME280;41776;48.260;8.928;2022-07-29T04:47:56;71109.91;;;-145.69;100.00
1726;BME280;41776;48.260;8.928;2022-07-29T04:50:23;71111.88;;;-145.69;100.00
1726;BME280;41776;48.260;8.928;2022-07-29T04:52:50;71111.88;;;-145.69;100.00
1726;BME280;41776;48.260;8.928;2022-07-29T04:55:16;71115.88;;;-145.69;100.00
1726;BME280;41776;48.260;8.928;2022-07-29T04:57:43;71107.91;;;-145.69;100.00
1726;BME280;41776;48.260;8.928;2022-07-29T05:00:10;71101.94;;;-145.69;100.00
1726;BME280;41776;48.260;8.928;2022-07-29T05:02:36;71099.94;;;-145.69;100.00
1726;BME280;41776;48.260;8.928;2022-07-29T05:05:05;71099.94;;;-145.69;100.00
1726;BME280;41776;48.260;8.928;2022-07-29T05:07:32;71090.00;;;-145.69;100.00
1726;BME280;41776;48.260;8.928;2022-07-29T05:09:59;71084.03;;;-145.69;100.00
1726;BME280;41776;48.260;8.928;2022-07-29T05:12:25;71074.09;;;-145.69;100.00
1726;BME280;41776;48.260;8.928;2022-07-29T05:14:52;71074.09;;;-145.69;100.00
1726;BME280;41776;48.260;8.928;2022-07-29T05:17:19;71062.13;;;-145.69;100.00
1726;BME280;41776;48.260;8.928;2022-07-29T05:19:48;71052.19;;;-145.69;100.00
1726;BME280;41776;48.260;8.928;2022-07-29T05:22:23;71034.28;;;-145.69;100.00
1726;BME280;41776;48.260;8.928;2022-07-29T05:24:50;71028.31;;;-145.69;100.00
1726;BME280;41776;48.260;8.928;2022-07-29T05:27:16;71014.38;;;-145.69;100.00
1726;BME280;41776;48.260;8.928;2022-07-29T05:29:43;70994.50;;;-145.69;100.00
1726;BME280;41776;48.260;8.928;2022-07-29T05:32:09;70964.66;;;-145.69;100.00
1726;BME280;41776;48.260;8.928;2022-07-29T05:34:37;70964.66;;;-145.69;100.00
1726;BME280;41776;48.260;8.928;2022-07-29T05:37:03;70950.72;;;-145.69;100.00
1726;BME280;41776;48.260;8.928;2022-07-29T05:39:31;70932.81;;;-145.69;100.00
1726;BME280;41776;48.260;8.928;2022-07-29T05:41:58;70912.91;;;-145.69;100.00
1726;BME280;41776;48.260;8.928;2022-07-29T05:44:24;70881.09;;;-145.69;100.00
1726;BME280;41776;48.260;8.928;2022-07-29T05:46:53;70863.19;;;-145.69;100.00
1726;BME280;41776;48.260;8.928;2022-07-29T05:49:20;70859.19;;;-145.69;100.00
1726;BME280;41776;48.260;8.928;2022-07-29T05:51:46;70853.22;;;-145.69;100.00
1726;BME280;41776;48.260;8.928;2022-07-29T05:54:14;70845.28;;;-145.69;100.00
1726;BME280;41776;48.260;8.928;2022-07-29T05:56:42;70837.31;;;-145.69;100.00
1726;BME280;41776;48.260;8.928;2022-07-29T05:59:08;70817.41;;;-145.69;100.00
1726;BME280;41776;48.260;8.928;2022-07-29T06:01:35;70785.59;;;-145.69;100.00
1726;BME280;41776;48.260;8.928;2022-07-29T06:04:05;70747.78;;;-145.69;100.00
1726;BME280;41776;48.260;8.928;2022-07-29T06:06:31;70721.91;;;-145.69;100.00
1726;BME280;41776;48.260;8.928;2022-07-29T06:08:58;70698.03;;;-145.69;100.00
1726;BME280;41776;48.260;8.928;2022-07-29T06:11:33;70678.16;;;-145.69;100.00
1726;BME280;41776;48.260;8.928;2022-07-29T06:14:05;70676.16;;;-145.69;100.00
1726;BME280;41776;48.260;8.928;2022-07-29T06:16:31;70654.28;;;-145.69;100.00
1726;BME280;41776;48.260;8.928;2022-07-29T06:19:00;70628.41;;;-145.69;100.00
1726;BME280;41776;48.260;8.928;2022-07-29T06:21:31;70612.50;;;-145.69;100.00
1726;BME280;41776;48.260;8.928;2022-07-29T06:23:58;70596.59;;;-145.69;100.00
1726;BME280;41776;48.260;8.928;2022-07-29T06:26:25;70570.72;;;-145.69;100.00
1726;BME280;41776;48.260;8.928;2022-07-29T06:28:53;70538.88;;;-145.69;100.00
1726;BME280;41776;48.260;8.928;2022-07-29T06:31:23;70511.03;;;-145.69;100.00
1726;BME280;41776;48.260;8.928;2022-07-29T06:33:50;70451.34;;;-145.69;100.00
1726;BME280;41776;48.260;8.928;2022-07-29T06:36:16;70433.44;;;-145.69;100.00
1726;BME280;41776;48.260;8.928;2022-07-29T06:38:45;70429.47;;;-145.69;100.00
1726;BME280;41776;48.260;8.928;2022-07-29T06:41:12;70385.69;;;-145.69;100.00
1726;BME280;41776;48.260;8.928;2022-07-29T06:43:43;70316.06;;;-145.69;100.00
1726;BME280;41776;48.260;8.928;2022-07-29T06:46:12;70240.47;;;-145.69;95.81
1726;BME280;41776;48.260;8.928;2022-07-29T06:48:43;70186.78;;;-145.69;93.12
1726;BME280;41776;48.260;8.928;2022-07-29T06:51:12;70141.03;;;-145.69;90.46
1726;BME280;41776;48.260;8.928;2022-07-29T06:53:42;70137.03;;;-145.69;88.09
1726;BME280;41776;48.260;8.928;2022-07-29T06:56:09;70145.00;;;-145.69;88.44
1726;BME280;41776;48.260;8.928;2022-07-29T06:58:37;70180.81;;;-145.69;88.26
1726;BME280;41776;48.260;8.928;2022-07-29T07:01:05;70214.63;;;-145.69;88.12
1726;BME280;41776;48.260;8.928;2022-07-29T07:03:32;70236.50;;;-145.69;87.00
1726;BME280;41776;48.260;8.928;2022-07-29T07:06:02;70222.56;;;-145.69;85.12
1726;BME280;41776;48.260;8.928;2022-07-29T07:08:28;70216.63;;;-145.69;83.21
1726;BME280;41776;48.260;8.928;2022-07-29T07:10:55;70232.53;;;-145.69;79.70
1726;BME280;41776;48.260;8.928;2022-07-29T07:13:22;70240.47;;;-145.69;79.92
1726;BME280;41776;48.260;8.928;2022-07-29T07:15:48;70230.53;;;-145.69;79.34
1726;BME280;41776;48.260;8.928;2022-07-29T07:18:18;70224.56;;;-145.69;80.32
1726;BME280;41776;48.260;8.928;2022-07-29T07:20:47;70218.59;;;-145.69;77.69
1726;BME280;41776;48.260;8.928;2022-07-29T07:23:15;70192.75;;;-145.69;73.70
1726;BME280;41776;48.260;8.928;2022-07-29T07:25:41;70212.63;;;-145.69;63.41
1726;BME280;41776;48.260;8.928;2022-07-29T07:28:08;70214.63;;;-145.69;65.96
1726;BME280;41776;48.260;8.928;2022-07-29T07:30:34;70188.75;;;-145.69;70.21
1726;BME280;41776;48.260;8.928;2022-07-29T07:33:01;70127.09;;;-145.69;76.02
1726;BME280;41776;48.260;8.928;2022-07-29T07:35:28;70180.81;;;-145.69;74.39
1726;BME280;41776;48.260;8.928;2022-07-29T07:37:55;70176.81;;;-145.69;63.24
1726;BME280;41776;48.260;8.928;2022-07-29T07:40:23;70158.94;;;-145.69;67.15
1726;BME280;41776;48.260;8.928;2022-07-29T07:42:50;70208.66;;;-145.69;69.60
1726;BME280;41776;48.260;8.928;2022-07-29T07:45:16;70202.69;;;-145.69;71.13
1726;BME280;41776;48.260;8.928;2022-07-29T07:47:43;70172.84;;;-145.69;70.53
1726;BME280;41776;48.260;8.928;2022-07-29T07:50:11;70166.88;;;-145.69;73.75
1726;BME280;41776;48.260;8.928;2022-07-29T07:52:46;70206.66;;;-145.69;69.22
1726;BME280;41776;48.260;8.928;2022-07-29T07:55:13;70206.66;;;-145.69;69.95
1726;BME280;41776;48.260;8.928;2022-07-29T07:57:40;70212.63;;;-145.69;71.11
1726;BME280;41776;48.260;8.928;2022-07-29T08:00:08;70204.69;;;-145.69;68.94
1726;BME280;41776;48.260;8.928;2022-07-29T08:02:34;70236.50;;;-145.69;71.56
1726;BME280;41776;48.260;8.928;2022-07-29T08:05:01;70216.63;;;-145.69;72.48
1726;BME280;41776;48.260;8.928;2022-07-29T08:07:27;70176.81;;;-145.69;71.05
1726;BME280;41776;48.260;8.928;2022-07-29T08:09:54;70180.81;;;-145.69;70.58
1726;BME280;41776;48.260;8.928;2022-07-29T08:12:20;70172.84;;;-145.69;69.25
1726;BME280;41776;48.260;8.928;2022-07-29T08:14:48;70148.97;;;-145.69;65.34
1726;BME280;41776;48.260;8.928;2022-07-29T08:17:14;70184.78;;;-145.69;67.96
1726;BME280;41776;48.260;8.928;2022-07-29T08:19:41;70162.91;;;-145.69;62.84
1726;BME280;41776;48.260;8.928;2022-07-29T08:22:07;70172.84;;;-145.69;62.89
1726;BME280;41776;48.260;8.928;2022-07-29T08:24:35;70172.84;;;-145.69;63.79
1726;BME280;41776;48.260;8.928;2022-07-29T08:27:17;70113.16;;;-145.69;65.20
1726;BME280;41776;48.260;8.928;2022-07-29T08:29:44;70093.28;;;-145.69;65.26
1726;BME280;41776;48.260;8.928;2022-07-29T08:32:12;70111.19;;;-145.69;60.72
1726;BME280;41776;48.260;8.928;2022-07-29T08:34:38;70087.31;;;-145.69;63.64
1726;BME280;41776;48.260;8.928;2022-07-29T08:37:05;70061.44;;;-145.69;62.82
1726;BME280;41776;48.260;8.928;2022-07-29T08:39:31;70091.28;;;-145.69;58.92
1726;BME280;41776;48.260;8.928;2022-07-29T08:41:58;70121.13;;;-145.69;61.27
1726;BME280;41776;48.260;8.928;2022-07-29T08:44:24;70148.97;;;-145.69;60.06
1726;BME280;41776;48.260;8.928;2022-07-29T08:46:52;70160.91;;;-145.69;62.04
1726;BME280;41776;48.260;8.928;2022-07-29T08:49:19;70143.00;;;-145.69;66.46
1726;BME280;41776;48.260;8.928;2022-07-29T08:51:46;70145.00;;;-145.69;62.76
1726;BME280;41776;48.260;8.928;2022-07-29T08:54:17;70105.22;;;-145.69;63.81
1726;BME280;41776;48.260;8.928;2022-07-29T08:56:45;70079.34;;;-145.69;60.18
1726;BME280;41776;48.260;8.928;2022-07-29T08:59:14;70085.31;;;-145.69;57.09
1726;BME280;41776;48.260;8.928;2022-07-29T09:01:43;70105.22;;;-145.69;59.88
1726;BME280;41776;48.260;8.928;2022-07-29T09:04:11;70121.13;;;-145.69;60.11
1726;BME280;41776;48.260;8.928;2022-07-29T09:06:43;70067.41;;;-145.69;61.26
1726;BME280;41776;48.260;8.928;2022-07-29T09:09:10;70115.16;;;-145.69;56.88
1726;BME280;41776;48.260;8.928;2022-07-29T09:11:37;70087.31;;;-145.69;57.20
1726;BME280;41776;48.260;8.928;2022-07-29T09:14:03;70065.44;;;-145.69;56.40
1726;BME280;41776;48.260;8.928;2022-07-29T09:16:47;70091.28;;;-145.69;58.30
1726;BME280;41776;48.260;8.928;2022-07-29T09:19:23;70049.50;;;-145.69;56.93
1726;BME280;41776;48.260;8.928;2022-07-29T09:21:52;69983.88;;;-145.69;55.04
1726;BME280;41776;48.260;8.928;2022-07-29T09:24:25;69973.94;;;-145.69;52.12
1726;BME280;41776;48.260;8.928;2022-07-29T09:26:52;70029.63;;;-145.69;51.71
1726;BME280;41776;48.260;8.928;2022-07-29T09:29:20;70009.72;;;-145.69;53.11
1726;BME280;41776;48.260;8.928;2022-07-29T09:31:49;70023.66;;;-145.69;53.11
1726;BME280;41776;48.260;8.928;2022-07-29T09:34:20;69979.91;;;-145.69;53.01
1726;BME280;41776;48.260;8.928;2022-07-29T09:36:48;69910.28;;;-145.69;50.52
1726;BME280;41776;48.260;8.928;2022-07-29T09:39:27;69944.09;;;-145.69;51.97
1726;BME280;41776;48.260;8.928;2022-07-29T09:41:56;69936.13;;;-145.69;51.81
1726;BME280;41776;48.260;8.928;2022-07-29T09:44:23;69838.66;;;-145.69;48.87
1726;BME280;41776;48.260;8.928;2022-07-29T09:46:54;69928.19;;;-145.69;47.46
1726;BME280;41776;48.260;8.928;2022-07-29T09:49:21;69950.06;;;-145.69;47.99
1726;BME280;41776;48.260;8.928;2022-07-29T09:51:58;69993.81;;;-145.69;48.67
1726;BME280;41776;48.260;8.928;2022-07-29T09:54:27;70005.75;;;-145.69;50.63
1726;BME280;41776;48.260;8.928;2022-07-29T09:56:55;70013.72;;;-145.69;51.01
1726;BME280;41776;48.260;8.928;2022-07-29T09:59:21;70013.72;;;-145.69;52.14
1726;BME280;41776;48.260;8.928;2022-07-29T10:01:51;69989.84;;;-145.69;50.13
1726;BME280;41776;48.260;8.928;2022-07-29T10:04:19;69934.16;;;-145.69;50.19
1726;BME280;41776;48.260;8.928;2022-07-29T10:06:55;69914.25;;;-145.69;50.33
1726;BME280;41776;48.260;8.928;2022-07-29T10:09:23;69910.28;;;-145.69;50.34
1726;BME280;41776;48.260;8.928;2022-07-29T10:12:05;69944.09;;;-145.69;49.74
1726;BME280;41776;48.260;8.928;2022-07-29T10:14:32;69960.00;;;-145.69;50.77
1726;BME280;41776;48.260;8.928;2022-07-29T10:16:59;69900.34;;;-145.69;51.54
1726;BME280;41776;48.260;8.928;2022-07-29T10:19:28;69796.91;;;-145.69;51.05
1726;BME280;41776;48.260;8.928;2022-07-29T10:21:55;69902.31;;;-145.69;49.74
1726;BME280;41776;48.260;8.928;2022-07-29T10:24:22;69936.13;;;-145.69;47.55
1726;BME280;41776;48.260;8.928;2022-07-29T10:26:49;69973.94;;;-145.69;52.87
1726;BME280;41776;48.260;8.928;2022-07-29T10:29:18;69944.09;;;-145.69;52.06
1726;BME280;41776;48.260;8.928;2022-07-29T10:31:53;69960.00;;;-145.69;51.67
1726;BME280;41776;48.260;8.928;2022-07-29T10:34:31;70001.78;;;-145.69;51.91
1726;BME280;41776;48.260;8.928;2022-07-29T10:37:05;70033.59;;;-145.69;51.72
1726;BME280;41776;48.260;8.928;2022-07-29T10:39:44;70017.69;;;-145.69;54.35
1726;BME280;41776;48.260;8.928;2022-07-29T10:42:19;70025.66;;;-145.69;55.31
1726;BME280;41776;48.260;8.928;2022-07-29T10:44:48;70041.56;;;-145.69;53.34
1726;BME280;41776;48.260;8.928;2022-07-29T10:47:22;70027.63;;;-145.69;54.89
1726;BME280;41776;48.260;8.928;2022-07-29T10:49:56;69963.97;;;-145.69;52.60
1726;BME280;41776;48.260;8.928;2022-07-29T10:52:23;70003.75;;;-145.69;52.79
1726;BME280;41776;48.260;8.928;2022-07-29T10:54:53;70023.66;;;-145.69;53.09
1726;BME280;41776;48.260;8.928;2022-07-29T10:57:26;70013.72;;;-145.69;54.28
1726;BME280;41776;48.260;8.928;2022-07-29T11:00:32;70021.66;;;-145.69;54.07
1726;BME280;41776;48.260;8.928;2022-07-29T11:02:59;69954.03;;;-145.69;53.12
1726;BME280;41776;48.260;8.928;2022-07-29T11:05:26;69886.41;;;-145.69;53.82
1726;BME280;41776;48.260;8.928;2022-07-29T11:08:17;69860.53;;;-145.69;51.48
1726;BME280;41776;48.260;8.928;2022-07-29T11:10:45;69854.59;;;-145.69;49.60
1726;BME280;41776;48.260;8.928;2022-07-29T11:13:12;69862.53;;;-145.69;50.97
1726;BME280;41776;48.260;8.928;2022-07-29T11:15:53;69906.28;;;-145.69;52.01
1726;BME280;41776;48.260;8.928;2022-07-29T11:18:20;69800.88;;;-145.69;50.03
1726;BME280;41776;48.260;8.928;2022-07-29T11:20:47;69786.94;;;-145.69;48.57
1726;BME280;41776;48.260;8.928;2022-07-29T11:23:21;69798.88;;;-145.69;48.73
1726;BME280;41776;48.260;8.928;2022-07-29T11:26:13;69743.19;;;-145.69;50.01
1726;BME280;41776;48.260;8.928;2022-07-29T11:28:49;69782.97;;;-145.69;48.92
1726;BME280;41776;48.260;8.928;2022-07-29T11:31:20;69751.16;;;-145.69;51.64
1726;BME280;41776;48.260;8.928;2022-07-29T11:34:15;69699.44;;;-145.69;44.81
1726;BME280;41776;48.260;8.928;2022-07-29T11:39:43;69510.47;;;-145.69;45.19
1726;BME280;41776;48.260;8.928;2022-07-29T11:42:42;69448.81;;;-145.69;39.59
1726;BME280;41776;48.260;8.928;2022-07-29T11:45:10;69568.16;;;-145.69;43.67
1726;BME280;41776;48.260;8.928;2022-07-29T11:47:47;69599.97;;;-145.69;41.80
1726;BME280;41776;48.260;8.928;2022-07-29T11:50:16;69671.59;;;-145.69;42.18
1726;BME280;41776;48.260;8.928;2022-07-29T11:52:45;69733.25;;;-145.69;41.24
1726;BME280;41776;48.260;8.928;2022-07-29T11:55:15;69810.81;;;-145.69;43.20
1726;BME280;41776;48.260;8.928;2022-07-29T11:57:46;69741.19;;;-145.69;47.82
1726;BME280;41776;48.260;8.928;2022-07-29T12:00:22;69761.09;;;-145.69;44.49
1726;BME280;41776;48.260;8.928;2022-07-29T12:02:50;69830.72;;;-145.69;45.52
1726;BME280;41776;48.260;8.928;2022-07-29T12:05:17;69868.50;;;-145.69;45.74
1726;BME280;41776;48.260;8.928;2022-07-29T12:07:44;69886.41;;;-145.69;48.52
1726;BME280;41776;48.260;8.928;2022-07-29T12:10:10;69888.41;;;-145.69;47.66
1726;BME280;41776;48.260;8.928;2022-07-29T12:12:37;69876.47;;;-145.69;49.62
1726;BME280;41776;48.260;8.928;2022-07-29T12:15:12;69814.78;;;-145.69;48.69
1726;BME280;41776;48.260;8.928;2022-07-29T12:17:39;69838.66;;;-145.69;48.13
1726;BME280;41776;48.260;8.928;2022-07-29T12:20:07;69830.72;;;-145.69;48.19
1726;BME280;41776;48.260;8.928;2022-07-29T12:22:36;69830.72;;;-145.69;46.63
1726;BME280;41776;48.260;8.928;2022-07-29T12:25:05;69866.50;;;-145.69;47.15
1726;BME280;41776;48.260;8.928;2022-07-29T12:27:33;69894.38;;;-145.69;46.95
1726;BME280;41776;48.260;8.928;2022-07-29T12:30:00;69910.28;;;-145.69;48.55
1726;BME280;41776;48.260;8.928;2022-07-29T12:32:32;69910.28;;;-145.69;48.79
1726;BME280;41776;48.260;8.928;2022-07-29T12:34:59;69952.03;;;-145.69;48.61
1726;BME280;41776;48.260;8.928;2022-07-29T12:37:29;69956.03;;;-145.69;48.55
1726;BME280;41776;48.260;8.928;2022-07-29T12:39:56;69922.22;;;-145.69;50.29
1726;BME280;41776;48.260;8.928;2022-07-29T12:42:22;69922.22;;;-145.69;50.47
1726;BME280;41776;48.260;8.928;2022-07-29T12:44:50;69910.28;;;-145.69;49.47
1726;BME280;41776;48.260;8.928;2022-07-29T12:47:17;69898.34;;;-145.69;47.46
1726;BME280;41776;48.260;8.928;2022-07-29T12:49:44;69878.44;;;-145.69;47.58
1726;BME280;41776;48.260;8.928;2022-07-29T12:52:23;69950.06;;;-145.69;47.65
1726;BME280;41776;48.260;8.928;2022-07-29T12:54:51;69910.28;;;-145.69;46.61
1726;BME280;41776;48.260;8.928;2022-07-29T12:57:18;69886.41;;;-145.69;45.44
1726;BME280;41776;48.260;8.928;2022-07-29T12:59:44;69876.47;;;-145.69;45.26